sensor_id;sensor_type;location;lat;lon;timestamp;temperature;humidity
3406;DHT22;10008;48.682;9.016;2023-03-01T00:00:15;-0.50;99.90
3406;DHT22;10008;48.682;9.016;2023-03-01T00:02:41;-0.50;99.90
3406;DHT22;10008;48.682;9.016;2023-03-01T00:05:07;1.00;99.90
3406;DHT22;10008;48.682;9.016;2023-03-01T00:07:33;-0.50;99.90
3406;DHT22;10008;48.682;9.016;2023-03-01T00:09:58;-0.50;99.90
3406;DHT22;10008;48.682;9.016;2023-03-01T00:12:24;-0.50;99.90
3406;DHT22;10008;48.682;9.016;2023-03-01T00:14:50;-0.60;99.90
3406;DHT22;10008;48.682;9.016;2023-03-01T00:17:16;-0.60;99.90
3406;DHT22;10008;48.682;9.016;2023-03-01T00:19:42;-0.60;99.90
3406;DHT22;10008;48.682;9.016;2023-03-01T00:22:08;1.10;99.90
3406;DHT22;10008;48.682;9.016;2023-03-01T00:24:33;-0.50;99.90
3406;DHT22;10008;48.682;9.016;2023-03-01T00:26:59;-0.60;99.90
3406;DHT22;10008;48.682;9.016;2023-03-01T00:29:26;-0.60;99.90
3406;DHT22;10008;48.682;9.016;2023-03-01T00:31:51;-0.70;99.90
3406;DHT22;10008;48.682;9.016;2023-03-01T00:34:17;1.00;99.90
3406;DHT22;10008;48.682;9.016;2023-03-01T00:36:43;-0.80;99.90
3406;DHT22;10008;48.682;9.016;2023-03-01T00:39:14;-0.70;99.90
3406;DHT22;10008;48.682;9.016;2023-03-01T00:41:41;-0.70;99.90
3406;DHT22;10008;48.682;9.016;2023-03-01T00:44:07;-0.80;99.90
3406;DHT22;10008;48.682;9.016;2023-03-01T00:46:34;-0.80;99.90
3406;DHT22;10008;48.682;9.016;2023-03-01T00:49:00;-0.80;99.90
3406;DHT22;10008;48.682;9.016;2023-03-01T00:51:28;0.60;99.90
3406;DHT22;10008;48.682;9.016;2023-03-01T00:53:59;-0.80;99.90
3406;DHT22;10008;48.682;9.016;2023-03-01T00:56:26;-0.80;99.90
3406;DHT22;10008;48.682;9.016;2023-03-01T00:58:52;-0.90;99.90
3406;DHT22;10008;48.682;9.016;2023-03-01T01:01:24;-0.90;99.90
3406;DHT22;10008;48.682;9.016;2023-03-01T01:04:04;-0.90;99.90
3406;DHT22;10008;48.682;9.016;2023-03-01T01:06:33;-0.80;99.90
3406;DHT22;10008;48.682;9.016;2023-03-01T01:09:00;-0.90;99.90
3406;DHT22;10008;48.682;9.016;2023-03-01T01:11:28;-1.00;99.90
3406;DHT22;10008;48.682;9.016;2023-03-01T01:13:55;-1.00;99.90
3406;DHT22;10008;48.682;9.016;2023-03-01T01:16:23;-1.00;99.90
3406;DHT22;10008;48.682;9.016;2023-03-01T01:18:49;-1.10;99.90
3406;DHT22;10008;48.682;9.016;2023-03-01T01:21:18;-1.10;99.90
3406;DHT22;10008;48.682;9.016;2023-03-01T01:23:46;-1.00;99.90
3406;DHT22;10008;48.682;9.016;2023-03-01T01:26:23;-1.00;99.90
3406;DHT22;10008;48.682;9.016;2023-03-01T01:28:50;-1.00;99.90
3406;DHT22;10008;48.682;9.016;2023-03-01T01:31:16;-1.00;99.90
3406;DHT22;10008;48.682;9.016;2023-03-01T01:33:42;-1.10;99.90
3406;DHT22;10008;48.682;9.016;2023-03-01T01:36:09;-1.10;99.90
3406;DHT22;10008;48.682;9.016;2023-03-01T01:38:35;-0.30;99.90
3406;DHT22;10008;48.682;9.016;2023-03-01T01:41:02;-1.10;99.90
3406;DHT22;10008;48.682;9.016;2023-03-01T01:43:31;-1.20;99.90
3406;DHT22;10008;48.682;9.016;2023-03-01T01:46:24;-1.20;99.90
3406;DHT22;10008;48.682;9.016;2023-03-01T01:51:42;-1.20;99.90
3406;DHT22;10008;48.682;9.016;2023-03-01T01:54:15;0.30;99.90
3406;DHT22;10008;48.682;9.016;2023-03-01T01:56:48;-1.20;99.90
3406;DHT22;10008;48.682;9.016;2023-03-01T01:59:15;-1.20;99.90
3406;DHT22;10008;48.682;9.016;2023-03-01T02:01:41;-1.30;99.90
3406;DHT22;10008;48.682;9.016;2023-03-01T02:04:07;-1.30;99.90
3406;DHT22;10008;48.682;9.016;2023-03-01T02:06:48;-1.30;99.90
3406;DHT22;10008;48.682;9.016;2023-03-01T02:09:19;-1.30;99.90
3406;DHT22;10008;48.682;9.016;2023-03-01T02:11:47;-1.40;99.90
3406;DHT22;10008;48.682;9.016;2023-03-01T02:14:14;-1.40;99.90
3406;DHT22;10008;48.682;9.016;2023-03-01T02:16:41;-1.40;99.90
3406;DHT22;10008;48.682;9.016;2023-03-01T02:19:08;-1.30;99.90
3406;DHT22;10008;48.682;9.016;2023-03-01T02:24:36;-1.10;99.90
3406;DHT22;10008;48.682;9.016;2023-03-01T02:27:03;-1.00;99.90
3406;DHT22;10008;48.682;9.016;2023-03-01T02:29:29;-0.90;99.90
3406;DHT22;10008;48.682;9.016;2023-03-01T02:31:58;-0.90;99.90
3406;DHT22;10008;48.682;9.016;2023-03-01T02:34:25;-0.80;99.90
3406;DHT22;10008;48.682;9.016;2023-03-01T02:37:08;-0.70;99.90
3406;DHT22;10008;48.682;9.016;2023-03-01T02:39:46;-0.60;99.90
3406;DHT22;10008;48.682;9.016;2023-03-01T02:42:17;-0.60;99.90
3406;DHT22;10008;48.682;9.016;2023-03-01T02:44:43;-0.50;99.90
3406;DHT22;10008;48.682;9.016;2023-03-01T02:47:10;-0.40;99.90
3406;DHT22;10008;48.682;9.016;2023-03-01T02:49:36;0.70;99.90
3406;DHT22;10008;48.682;9.016;2023-03-01T02:55:14;-0.20;99.90
3406;DHT22;10008;48.682;9.016;2023-03-01T02:57:43;-0.20;99.90
3406;DHT22;10008;48.682;9.016;2023-03-01T03:00:16;0.90;99.90
3406;DHT22;10008;48.682;9.016;2023-03-01T03:02:48;-0.50;99.90
3406;DHT22;10008;48.682;9.016;2023-03-01T03:05:23;-0.50;99.90
3406;DHT22;10008;48.682;9.016;2023-03-01T03:07:52;-0.30;99.90
3406;DHT22;10008;48.682;9.016;2023-03-01T03:10:28;1.20;99.90
3406;DHT22;10008;48.682;9.016;2023-03-01T03:12:57;1.20;99.90
3406;DHT22;10008;48.682;9.016;2023-03-01T03:15:24;-0.20;99.90
3406;DHT22;10008;48.682;9.016;2023-03-01T03:17:51;-0.20;99.90
3406;DHT22;10008;48.682;9.016;2023-03-01T03:20:20;-0.20;99.90
3406;DHT22;10008;48.682;9.016;2023-03-01T03:22:51;-0.20;99.90
3406;DHT22;10008;48.682;9.016;2023-03-01T03:25:18;-0.20;99.90
3406;DHT22;10008;48.682;9.016;2023-03-01T03:27:45;-0.10;99.90
3406;DHT22;10008;48.682;9.016;2023-03-01T03:30:14;-0.10;99.90
3406;DHT22;10008;48.682;9.016;2023-03-01T03:32:41;0.00;99.90
3406;DHT22;10008;48.682;9.016;2023-03-01T03:35:09;-0.10;99.90
3406;DHT22;10008;48.682;9.016;2023-03-01T03:37:37;0.00;99.90
3406;DHT22;10008;48.682;9.016;2023-03-01T03:40:21;1.70;99.90
3406;DHT22;10008;48.682;9.016;2023-03-01T03:42:47;1.40;99.90
3406;DHT22;10008;48.682;9.016;2023-03-01T03:45:14;0.10;99.90
3406;DHT22;10008;48.682;9.016;2023-03-01T03:47:39;-0.10;99.90
3406;DHT22;10008;48.682;9.016;2023-03-01T03:50:05;0.00;99.90
3406;DHT22;10008;48.682;9.016;2023-03-01T03:52:32;0.10;99.90
3406;DHT22;10008;48.682;9.016;2023-03-01T03:54:58;0.10;99.90
3406;DHT22;10008;48.682;9.016;2023-03-01T03:57:24;0.20;99.90
3406;DHT22;10008;48.682;9.016;2023-03-01T03:59:49;1.70;99.90
3406;DHT22;10008;48.682;9.016;2023-03-01T04:02:15;0.20;99.90
3406;DHT22;10008;48.682;9.016;2023-03-01T04:04:48;1.30;99.90
3406;DHT22;10008;48.682;9.016;2023-03-01T04:07:18;0.20;99.90
3406;DHT22;10008;48.682;9.016;2023-03-01T04:09:44;2.00;99.90
3406;DHT22;10008;48.682;9.016;2023-03-01T04:12:10;0.20;99.90
3406;DHT22;10008;48.682;9.016;2023-03-01T04:14:36;1.80;99.90
3406;DHT22;10008;48.682;9.016;2023-03-01T04:17:02;1.70;99.90
3406;DHT22;10008;48.682;9.016;2023-03-01T04:19:33;1.80;99.90
3406;DHT22;10008;48.682;9.016;2023-03-01T04:22:04;0.40;99.90
3406;DHT22;10008;48.682;9.016;2023-03-01T04:24:37;0.30;99.90
3406;DHT22;10008;48.682;9.016;2023-03-01T04:27:03;0.20;99.90
3406;DHT22;10008;48.682;9.016;2023-03-01T04:29:29;1.90;99.90
3406;DHT22;10008;48.682;9.016;2023-03-01T04:31:55;0.30;99.90
3406;DHT22;10008;48.682;9.016;2023-03-01T04:34:21;0.20;99.90
3406;DHT22;10008;48.682;9.016;2023-03-01T04:36:46;0.20;99.90
3406;DHT22;10008;48.682;9.016;2023-03-01T04:39:12;0.20;99.90
3406;DHT22;10008;48.682;9.016;2023-03-01T04:41:39;0.20;99.90
3406;DHT22;10008;48.682;9.016;2023-03-01T04:44:06;0.20;99.90
3406;DHT22;10008;48.682;9.016;2023-03-01T04:46:31;0.50;99.90
3406;DHT22;10008;48.682;9.016;2023-03-01T04:48:57;1.50;99.90
3406;DHT22;10008;48.682;9.016;2023-03-01T04:51:23;0.20;99.90
3406;DHT22;10008;48.682;9.016;2023-03-01T04:53:49;0.90;99.90
3406;DHT22;10008;48.682;9.016;2023-03-01T04:56:16;0.00;99.90
3406;DHT22;10008;48.682;9.016;2023-03-01T04:58:43;0.00;99.90
3406;DHT22;10008;48.682;9.016;2023-03-01T05:01:19;0.10;99.90
3406;DHT22;10008;48.682;9.016;2023-03-01T05:03:48;1.20;99.90
3406;DHT22;10008;48.682;9.016;2023-03-01T05:06:15;0.20;99.90
3406;DHT22;10008;48.682;9.016;2023-03-01T05:08:41;0.30;99.90
3406;DHT22;10008;48.682;9.016;2023-03-01T05:11:08;0.20;99.90
3406;DHT22;10008;48.682;9.016;2023-03-01T05:13:35;2.00;99.90
3406;DHT22;10008;48.682;9.016;2023-03-01T05:16:02;0.80;99.90
3406;DHT22;10008;48.682;9.016;2023-03-01T05:18:32;0.20;99.90
3406;DHT22;10008;48.682;9.016;2023-03-01T05:21:07;1.80;99.90
3406;DHT22;10008;48.682;9.016;2023-03-01T05:23:33;0.20;99.90
3406;DHT22;10008;48.682;9.016;2023-03-01T05:26:03;1.50;99.90
3406;DHT22;10008;48.682;9.016;2023-03-01T05:28:29;0.20;99.90
3406;DHT22;10008;48.682;9.016;2023-03-01T05:30:56;0.20;99.90
3406;DHT22;10008;48.682;9.016;2023-03-01T05:33:22;0.20;99.90
3406;DHT22;10008;48.682;9.016;2023-03-01T05:35:50;0.10;99.90
3406;DHT22;10008;48.682;9.016;2023-03-01T05:38:17;1.90;99.90
3406;DHT22;10008;48.682;9.016;2023-03-01T05:40:45;0.20;99.90
3406;DHT22;10008;48.682;9.016;2023-03-01T05:43:13;0.50;99.90
3406;DHT22;10008;48.682;9.016;2023-03-01T05:45:39;0.10;99.90
3406;DHT22;10008;48.682;9.016;2023-03-01T05:48:07;0.20;99.90
3406;DHT22;10008;48.682;9.016;2023-03-01T05:50:36;0.20;99.90
3406;DHT22;10008;48.682;9.016;2023-03-01T05:53:04;0.30;99.90
3406;DHT22;10008;48.682;9.016;2023-03-01T05:55:34;1.80;99.90
3406;DHT22;10008;48.682;9.016;2023-03-01T05:58:03;0.50;99.90
3406;DHT22;10008;48.682;9.016;2023-03-01T06:00:30;1.60;99.90
3406;DHT22;10008;48.682;9.016;2023-03-01T06:02:56;0.70;99.90
3406;DHT22;10008;48.682;9.016;2023-03-01T06:05:23;2.10;99.90
3406;DHT22;10008;48.682;9.016;2023-03-01T06:07:49;1.30;99.90
3406;DHT22;10008;48.682;9.016;2023-03-01T06:10:17;1.60;99.90
3406;DHT22;10008;48.682;9.016;2023-03-01T06:12:43;0.70;99.90
3406;DHT22;10008;48.682;9.016;2023-03-01T06:15:11;0.70;99.90
3406;DHT22;10008;48.682;9.016;2023-03-01T06:17:38;1.70;99.90
3406;DHT22;10008;48.682;9.016;2023-03-01T06:20:14;0.80;99.90
3406;DHT22;10008;48.682;9.016;2023-03-01T06:22:41;0.70;99.90
3406;DHT22;10008;48.682;9.016;2023-03-01T06:25:08;1.30;99.90
3406;DHT22;10008;48.682;9.016;2023-03-01T06:27:34;0.80;99.90
3406;DHT22;10008;48.682;9.016;2023-03-01T06:29:59;0.80;99.90
3406;DHT22;10008;48.682;9.016;2023-03-01T06:32:25;1.50;99.90
3406;DHT22;10008;48.682;9.016;2023-03-01T06:34:51;0.70;99.90
3406;DHT22;10008;48.682;9.016;2023-03-01T06:37:17;0.80;99.90
3406;DHT22;10008;48.682;9.016;2023-03-01T06:39:43;1.50;99.90
3406;DHT22;10008;48.682;9.016;2023-03-01T06:42:09;0.80;99.90
3406;DHT22;10008;48.682;9.016;2023-03-01T06:44:38;0.80;99.90
3406;DHT22;10008;48.682;9.016;2023-03-01T06:47:04;2.20;99.90
3406;DHT22;10008;48.682;9.016;2023-03-01T06:49:29;1.00;99.90
3406;DHT22;10008;48.682;9.016;2023-03-01T06:51:56;2.40;99.90
3406;DHT22;10008;48.682;9.016;2023-03-01T06:54:22;1.00;99.90
3406;DHT22;10008;48.682;9.016;2023-03-01T06:56:49;1.10;99.90
3406;DHT22;10008;48.682;9.016;2023-03-01T06:59:15;1.10;99.90
3406;DHT22;10008;48.682;9.016;2023-03-01T07:01:41;1.20;99.90
3406;DHT22;10008;48.682;9.016;2023-03-01T07:04:07;3.00;99.90
3406;DHT22;10008;48.682;9.016;2023-03-01T07:06:33;2.00;99.90
3406;DHT22;10008;48.682;9.016;2023-03-01T07:08:59;2.10;99.90
3406;DHT22;10008;48.682;9.016;2023-03-01T07:11:24;1.20;99.90
3406;DHT22;10008;48.682;9.016;2023-03-01T07:13:50;1.30;99.90
3406;DHT22;10008;48.682;9.016;2023-03-01T07:16:16;2.80;99.90
3406;DHT22;10008;48.682;9.016;2023-03-01T07:18:42;1.30;99.90
3406;DHT22;10008;48.682;9.016;2023-03-01T07:21:09;1.10;99.90
3406;DHT22;10008;48.682;9.016;2023-03-01T07:23:35;1.00;99.90
3406;DHT22;10008;48.682;9.016;2023-03-01T07:26:00;1.00;99.90
3406;DHT22;10008;48.682;9.016;2023-03-01T07:28:27;1.10;99.90
3406;DHT22;10008;48.682;9.016;2023-03-01T07:30:53;1.40;99.90
3406;DHT22;10008;48.682;9.016;2023-03-01T07:33:19;1.20;99.90
3406;DHT22;10008;48.682;9.016;2023-03-01T07:35:45;1.90;99.90
3406;DHT22;10008;48.682;9.016;2023-03-01T07:38:11;1.20;99.90
3406;DHT22;10008;48.682;9.016;2023-03-01T07:40:36;2.00;99.90
3406;DHT22;10008;48.682;9.016;2023-03-01T07:43:02;1.30;99.90
3406;DHT22;10008;48.682;9.016;2023-03-01T07:45:28;1.40;99.90
3406;DHT22;10008;48.682;9.016;2023-03-01T07:47:55;1.50;99.90
3406;DHT22;10008;48.682;9.016;2023-03-01T07:50:21;1.30;99.90
3406;DHT22;10008;48.682;9.016;2023-03-01T07:52:49;1.40;99.90
3406;DHT22;10008;48.682;9.016;2023-03-01T07:55:15;1.60;99.90
3406;DHT22;10008;48.682;9.016;2023-03-01T07:57:42;1.70;99.90
3406;DHT22;10008;48.682;9.016;2023-03-01T08:00:10;2.00;99.90
3406;DHT22;10008;48.682;9.016;2023-03-01T08:02:40;1.90;99.90
3406;DHT22;10008;48.682;9.016;2023-03-01T08:05:08;1.90;99.90
3406;DHT22;10008;48.682;9.016;2023-03-01T08:07:34;2.00;99.90
3406;DHT22;10008;48.682;9.016;2023-03-01T08:10:00;3.30;99.90
3406;DHT22;10008;48.682;9.016;2023-03-01T08:12:26;2.10;99.90
3406;DHT22;10008;48.682;9.016;2023-03-01T08:14:53;2.60;99.90
3406;DHT22;10008;48.682;9.016;2023-03-01T08:17:19;2.40;99.90
3406;DHT22;10008;48.682;9.016;2023-03-01T08:19:45;3.20;99.90
3406;DHT22;10008;48.682;9.016;2023-03-01T08:22:11;3.30;99.90
3406;DHT22;10008;48.682;9.016;2023-03-01T08:24:37;4.20;99.90
3406;DHT22;10008;48.682;9.016;2023-03-01T08:27:03;5.20;99.70
3406;DHT22;10008;48.682;9.016;2023-03-01T08:29:33;6.20;98.40
3406;DHT22;10008;48.682;9.016;2023-03-01T08:31:59;7.00;95.90
3406;DHT22;10008;48.682;9.016;2023-03-01T08:34:25;7.60;93.70
3406;DHT22;10008;48.682;9.016;2023-03-01T08:36:51;7.90;92.10
3406;DHT22;10008;48.682;9.016;2023-03-01T08:39:19;8.40;91.30
3406;DHT22;10008;48.682;9.016;2023-03-01T08:41:45;8.90;89.70
3406;DHT22;10008;48.682;9.016;2023-03-01T08:44:13;9.00;87.60
3406;DHT22;10008;48.682;9.016;2023-03-01T08:46:41;9.10;86.40
3406;DHT22;10008;48.682;9.016;2023-03-01T08:49:17;9.40;84.40
3406;DHT22;10008;48.682;9.016;2023-03-01T08:51:44;9.50;83.30
3406;DHT22;10008;48.682;9.016;2023-03-01T08:54:13;9.60;82.00
3406;DHT22;10008;48.682;9.016;2023-03-01T08:56:40;9.90;80.40
3406;DHT22;10008;48.682;9.016;2023-03-01T08:59:07;10.00;78.40
3406;DHT22;10008;48.682;9.016;2023-03-01T09:01:32;10.20;77.20
3406;DHT22;10008;48.682;9.016;2023-03-01T09:03:58;10.40;77.40
3406;DHT22;10008;48.682;9.016;2023-03-01T09:06:24;10.90;76.80
3406;DHT22;10008;48.682;9.016;2023-03-01T09:08:50;11.00;74.40
3406;DHT22;10008;48.682;9.016;2023-03-01T09:11:19;10.50;71.90
3406;DHT22;10008;48.682;9.016;2023-03-01T09:13:46;9.80;74.90
3406;DHT22;10008;48.682;9.016;2023-03-01T09:16:14;10.10;75.10
3406;DHT22;10008;48.682;9.016;2023-03-01T09:18:41;9.80;74.50
3406;DHT22;10008;48.682;9.016;2023-03-01T09:21:12;9.50;76.60
3406;DHT22;10008;48.682;9.016;2023-03-01T09:23:43;9.80;78.90
3406;DHT22;10008;48.682;9.016;2023-03-01T09:26:15;9.70;75.80
3406;DHT22;10008;48.682;9.016;2023-03-01T09:28:45;10.20;74.40
3406;DHT22;10008;48.682;9.016;2023-03-01T09:31:12;10.30;73.60
3406;DHT22;10008;48.682;9.016;2023-03-01T09:33:39;10.80;72.10
3406;DHT22;10008;48.682;9.016;2023-03-01T09:36:08;10.60;71.70
3406;DHT22;10008;48.682;9.016;2023-03-01T09:38:34;10.60;72.80
3406;DHT22;10008;48.682;9.016;2023-03-01T09:41:00;10.60;72.20
3406;DHT22;10008;48.682;9.016;2023-03-01T09:43:40;10.70;71.90
3406;DHT22;10008;48.682;9.016;2023-03-01T09:46:10;10.50;70.00
3406;DHT22;10008;48.682;9.016;2023-03-01T09:48:46;10.50;71.80
3406;DHT22;10008;48.682;9.016;2023-03-01T09:51:18;11.20;71.30
3406;DHT22;10008;48.682;9.016;2023-03-01T09:53:45;11.70;69.40
3406;DHT22;10008;48.682;9.016;2023-03-01T10:04:50;11.80;66.00
3406;DHT22;10008;48.682;9.016;2023-03-01T10:10:00;12.40;65.60
3406;DHT22;10008;48.682;9.016;2023-03-01T10:12:37;12.20;64.10
3406;DHT22;10008;48.682;9.016;2023-03-01T10:17:49;12.00;64.60
3406;DHT22;10008;48.682;9.016;2023-03-01T10:20:28;12.00;64.60
3406;DHT22;10008;48.682;9.016;2023-03-01T10:22:55;11.90;64.20
3406;DHT22;10008;48.682;9.016;2023-03-01T10:30:53;11.80;64.30
3406;DHT22;10008;48.682;9.016;2023-03-01T10:33:26;12.00;64.70
3406;DHT22;10008;48.682;9.016;2023-03-01T10:35:52;11.70;63.50
3406;DHT22;10008;48.682;9.016;2023-03-01T10:38:19;11.50;64.90
3406;DHT22;10008;48.682;9.016;2023-03-01T10:40:58;12.20;65.30
3406;DHT22;10008;48.682;9.016;2023-03-01T10:43:26;12.50;63.40
3406;DHT22;10008;48.682;9.016;2023-03-01T10:45:53;13.10;62.80
3406;DHT22;10008;48.682;9.016;2023-03-01T10:48:25;13.60;61.20
3406;DHT22;10008;48.682;9.016;2023-03-01T10:56:12;13.40;58.70
3406;DHT22;10008;48.682;9.016;2023-03-01T10:59:00;13.60;59.70
3406;DHT22;10008;48.682;9.016;2023-03-01T11:01:35;14.00;59.80
3406;DHT22;10008;48.682;9.016;2023-03-01T11:06:38;14.90;58.00
3406;DHT22;10008;48.682;9.016;2023-03-01T11:09:19;14.60;57.50
3406;DHT22;10008;48.682;9.016;2023-03-01T11:11:49;14.40;56.20
3406;DHT22;10008;48.682;9.016;2023-03-01T11:16:48;14.30;56.70
3406;DHT22;10008;48.682;9.016;2023-03-01T11:19:18;14.40;57.80
3406;DHT22;10008;48.682;9.016;2023-03-01T11:22:14;14.90;56.70
3406;DHT22;10008;48.682;9.016;2023-03-01T11:27:24;14.80;55.40
3406;DHT22;10008;48.682;9.016;2023-03-01T11:30:13;15.00;56.10
3406;DHT22;10008;48.682;9.016;2023-03-01T11:35:29;15.10;55.30
3406;DHT22;10008;48.682;9.016;2023-03-01T11:38:09;15.10;55.30
3406;DHT22;10008;48.682;9.016;2023-03-01T11:40:46;15.30;54.40
3406;DHT22;10008;48.682;9.016;2023-03-01T11:43:33;14.80;54.30
3406;DHT22;10008;48.682;9.016;2023-03-01T11:52:42;14.80;54.90
3406;DHT22;10008;48.682;9.016;2023-03-01T11:55:36;15.00;55.10
3406;DHT22;10008;48.682;9.016;2023-03-01T11:58:34;15.70;55.10
3406;DHT22;10008;48.682;9.016;2023-03-01T12:01:19;15.50;53.40
3406;DHT22;10008;48.682;9.016;2023-03-01T12:06:55;15.60;52.60
3406;DHT22;10008;48.682;9.016;2023-03-01T12:37:44;15.80;50.90
3406;DHT22;10008;48.682;9.016;2023-03-01T12:48:19;15.50;51.70
3406;DHT22;10008;48.682;9.016;2023-03-01T12:50:53;15.60;52.20
3406;DHT22;10008;48.682;9.016;2023-03-01T12:53:28;15.90;51.40
3406;DHT22;10008;48.682;9.016;2023-03-01T12:56:00;14.80;51.40
3406;DHT22;10008;48.682;9.016;2023-03-01T12:58:33;14.90;53.10
3406;DHT22;10008;48.682;9.016;2023-03-01T13:17:57;17.20;50.20
3406;DHT22;10008;48.682;9.016;2023-03-01T13:20:47;16.80;49.50
3406;DHT22;10008;48.682;9.016;2023-03-01T13:31:11;15.60;50.70
3406;DHT22;10008;48.682;9.016;2023-03-01T13:49:47;15.60;52.40
3406;DHT22;10008;48.682;9.016;2023-03-01T13:52:37;15.50;51.70
3406;DHT22;10008;48.682;9.016;2023-03-01T13:57:39;15.80;52.40
3406;DHT22;10008;48.682;9.016;2023-03-01T14:00:24;15.60;51.70
3406;DHT22;10008;48.682;9.016;2023-03-01T14:03:12;15.30;52.00
3406;DHT22;10008;48.682;9.016;2023-03-01T14:05:40;15.20;52.20
3406;DHT22;10008;48.682;9.016;2023-03-01T14:08:22;15.10;52.60
3406;DHT22;10008;48.682;9.016;2023-03-01T14:19:21;14.40;54.00
3406;DHT22;10008;48.682;9.016;2023-03-01T14:22:18;14.20;54.00
3406;DHT22;10008;48.682;9.016;2023-03-01T14:27:26;13.90;54.70
3406;DHT22;10008;48.682;9.016;2023-03-01T14:30:09;13.70;55.10
3406;DHT22;10008;48.682;9.016;2023-03-01T14:32:35;13.60;55.10
3406;DHT22;10008;48.682;9.016;2023-03-01T14:35:01;13.40;55.90
3406;DHT22;10008;48.682;9.016;2023-03-01T14:37:30;12.90;56.00
3406;DHT22;10008;48.682;9.016;2023-03-01T14:39:57;12.70;57.20
3406;DHT22;10008;48.682;9.016;2023-03-01T14:42:25;12.40;57.10
3406;DHT22;10008;48.682;9.016;2023-03-01T14:44:54;12.40;57.50
3406;DHT22;10008;48.682;9.016;2023-03-01T14:47:30;12.60;57.30
3406;DHT22;10008;48.682;9.016;2023-03-01T14:50:03;12.60;57.20
3406;DHT22;10008;48.682;9.016;2023-03-01T14:52:45;12.60;57.80
3406;DHT22;10008;48.682;9.016;2023-03-01T14:55:38;12.20;57.70
3406;DHT22;10008;48.682;9.016;2023-03-01T14:58:12;12.20;58.80
3406;DHT22;10008;48.682;9.016;2023-03-01T15:00:39;12.40;58.80
3406;DHT22;10008;48.682;9.016;2023-03-01T15:03:14;12.30;58.30
3406;DHT22;10008;48.682;9.016;2023-03-01T15:05:43;11.80;59.40
3406;DHT22;10008;48.682;9.016;2023-03-01T15:08:18;11.60;59.80
3406;DHT22;10008;48.682;9.016;2023-03-01T15:10:59;11.50;60.30
3406;DHT22;10008;48.682;9.016;2023-03-01T15:13:31;11.30;63.80
3406;DHT22;10008;48.682;9.016;2023-03-01T15:16:10;11.20;63.70
3406;DHT22;10008;48.682;9.016;2023-03-01T15:18:37;11.30;62.00
3406;DHT22;10008;48.682;9.016;2023-03-01T15:21:08;11.30;62.30
3406;DHT22;10008;48.682;9.016;2023-03-01T15:23:37;11.30;62.20
3406;DHT22;10008;48.682;9.016;2023-03-01T15:26:04;11.30;62.20
3406;DHT22;10008;48.682;9.016;2023-03-01T15:28:37;11.00;62.60
3406;DHT22;10008;48.682;9.016;2023-03-01T15:31:32;10.80;63.20
3406;DHT22;10008;48.682;9.016;2023-03-01T15:34:21;10.80;64.00
3406;DHT22;10008;48.682;9.016;2023-03-01T15:36:47;10.40;64.10
3406;DHT22;10008;48.682;9.016;2023-03-01T15:44:35;10.10;65.70
3406;DHT22;10008;48.682;9.016;2023-03-01T15:47:04;9.90;67.00
3406;DHT22;10008;48.682;9.016;2023-03-01T15:49:40;9.90;68.40
3406;DHT22;10008;48.682;9.016;2023-03-01T15:52:23;9.80;67.60
3406;DHT22;10008;48.682;9.016;2023-03-01T15:54:59;9.60;68.40
3406;DHT22;10008;48.682;9.016;2023-03-01T15:57:26;9.60;69.30
3406;DHT22;10008;48.682;9.016;2023-03-01T15:59:52;9.40;69.00
3406;DHT22;10008;48.682;9.016;2023-03-01T16:02:18;9.20;69.50
3406;DHT22;10008;48.682;9.016;2023-03-01T16:04:47;9.00;70.80
3406;DHT22;10008;48.682;9.016;2023-03-01T16:07:14;8.90;71.70
3406;DHT22;10008;48.682;9.016;2023-03-01T16:09:40;8.80;71.90
3406;DHT22;10008;48.682;9.016;2023-03-01T16:12:08;8.50;71.50
3406;DHT22;10008;48.682;9.016;2023-03-01T16:14:34;8.20;72.60
3406;DHT22;10008;48.682;9.016;2023-03-01T16:17:00;8.10;73.30
3406;DHT22;10008;48.682;9.016;2023-03-01T16:19:25;8.10;73.70
3406;DHT22;10008;48.682;9.016;2023-03-01T16:21:51;8.00;74.00
3406;DHT22;10008;48.682;9.016;2023-03-01T16:24:17;7.70;75.20
3406;DHT22;10008;48.682;9.016;2023-03-01T16:26:43;7.50;75.70
3406;DHT22;10008;48.682;9.016;2023-03-01T16:29:08;7.40;75.80
3406;DHT22;10008;48.682;9.016;2023-03-01T16:31:34;7.30;76.80
3406;DHT22;10008;48.682;9.016;2023-03-01T16:34:00;7.20;76.80
3406;DHT22;10008;48.682;9.016;2023-03-01T16:36:26;7.20;78.40
3406;DHT22;10008;48.682;9.016;2023-03-01T16:38:54;7.10;77.70
3406;DHT22;10008;48.682;9.016;2023-03-01T16:41:23;6.90;77.60
3406;DHT22;10008;48.682;9.016;2023-03-01T16:43:50;6.80;78.50
3406;DHT22;10008;48.682;9.016;2023-03-01T16:46:21;6.70;80.20
3406;DHT22;10008;48.682;9.016;2023-03-01T16:48:47;6.60;80.20
3406;DHT22;10008;48.682;9.016;2023-03-01T16:51:14;6.50;80.60
3406;DHT22;10008;48.682;9.016;2023-03-01T16:53:40;6.50;80.60
3406;DHT22;10008;48.682;9.016;2023-03-01T16:56:09;6.40;80.50
3406;DHT22;10008;48.682;9.016;2023-03-01T16:58:36;6.20;81.20
3406;DHT22;10008;48.682;9.016;2023-03-01T17:01:14;6.10;82.00
3406;DHT22;10008;48.682;9.016;2023-03-01T17:03:41;5.90;82.40
3406;DHT22;10008;48.682;9.016;2023-03-01T17:06:13;5.90;83.30
3406;DHT22;10008;48.682;9.016;2023-03-01T17:08:39;5.80;83.60
3406;DHT22;10008;48.682;9.016;2023-03-01T17:11:10;5.70;84.60
3406;DHT22;10008;48.682;9.016;2023-03-01T17:13:36;5.70;85.00
3406;DHT22;10008;48.682;9.016;2023-03-01T17:16:10;5.50;85.00
3406;DHT22;10008;48.682;9.016;2023-03-01T17:18:37;5.50;86.60
3406;DHT22;10008;48.682;9.016;2023-03-01T17:21:04;5.90;90.40
3406;DHT22;10008;48.682;9.016;2023-03-01T17:23:31;5.40;88.50
3406;DHT22;10008;48.682;9.016;2023-03-01T17:25:58;5.40;88.30
3406;DHT22;10008;48.682;9.016;2023-03-01T17:28:26;5.20;89.00
3406;DHT22;10008;48.682;9.016;2023-03-01T17:30:52;5.20;89.90
3406;DHT22;10008;48.682;9.016;2023-03-01T17:33:18;5.10;89.50
3406;DHT22;10008;48.682;9.016;2023-03-01T17:35:45;5.00;89.80
3406;DHT22;10008;48.682;9.016;2023-03-01T17:38:13;5.10;90.20
3406;DHT22;10008;48.682;9.016;2023-03-01T17:40:40;4.90;90.50
3406;DHT22;10008;48.682;9.016;2023-03-01T17:43:07;4.90;91.40
3406;DHT22;10008;48.682;9.016;2023-03-01T17:45:36;4.90;92.40
3406;DHT22;10008;48.682;9.016;2023-03-01T17:48:02;4.80;91.50
3406;DHT22;10008;48.682;9.016;2023-03-01T17:50:28;4.80;91.60
3406;DHT22;10008;48.682;9.016;2023-03-01T17:52:54;4.80;91.60
3406;DHT22;10008;48.682;9.016;2023-03-01T17:55:23;4.70;92.10
3406;DHT22;10008;48.682;9.016;2023-03-01T17:57:49;4.90;92.30
3406;DHT22;10008;48.682;9.016;2023-03-01T18:00:16;4.60;91.90
3406;DHT22;10008;48.682;9.016;2023-03-01T18:02:42;4.60;92.10
3406;DHT22;10008;48.682;9.016;2023-03-01T18:05:08;4.70;92.50
3406;DHT22;10008;48.682;9.016;2023-03-01T18:07:35;4.60;93.10
3406;DHT22;10008;48.682;9.016;2023-03-01T18:10:01;4.60;92.90
3406;DHT22;10008;48.682;9.016;2023-03-01T18:12:26;4.50;93.40
3406;DHT22;10008;48.682;9.016;2023-03-01T18:14:52;4.50;95.20
3406;DHT22;10008;48.682;9.016;2023-03-01T18:17:24;4.40;94.00
3406;DHT22;10008;48.682;9.016;2023-03-01T18:19:50;4.40;94.20
3406;DHT22;10008;48.682;9.016;2023-03-01T18:22:16;4.40;94.60
3406;DHT22;10008;48.682;9.016;2023-03-01T18:24:42;4.30;95.30
3406;DHT22;10008;48.682;9.016;2023-03-01T18:27:08;4.30;94.50
3406;DHT22;10008;48.682;9.016;2023-03-01T18:29:36;4.30;94.10
3406;DHT22;10008;48.682;9.016;2023-03-01T18:32:02;4.20;95.90
3406;DHT22;10008;48.682;9.016;2023-03-01T18:34:28;4.20;94.90
3406;DHT22;10008;48.682;9.016;2023-03-01T18:36:53;4.20;94.80